Time;durP1;ratioP1;P1;durP2;ratioP2;P2;SDS_P1;SDS_P2;PMS_P1;PMS_P2;Temp;Humidity;BMP_temperature;BMP_pressure;BME280_temperature;BME280_humidity;BME280_pressure;Samples;Min_cycle;Max_cycle;Signal;HPM_P1;HPM_P2
2021/07/16 00:00:22;;;;;;;;;;;;;;;24.65;79.71;99839.34;1704893;82;20171;-79
2021/07/16 00:02:52;;;;;;;;;;;;;;;24.54;80.67;99839.76;1685744;83;20111;-79
2021/07/16 00:05:22;;;;;;;;;;;;;;;24.54;80.36;99836.25;1694640;83;20441;-78
2021/07/16 00:07:50;;;;;;;;;;;;;;;24.59;80.25;99838.22;1705747;82;20475;-81
2021/07/16 00:10:17;;;;;;;;;;;;;;;24.60;80.09;99839.31;1695958;82;20199;-79
2021/07/16 00:12:48;;;;;;;;;;;;;;;24.62;80.00;99843.91;1675748;82;20484;-77
2021/07/16 00:15:14;;;;;;;;;;;;;;;24.61;80.08;99846.86;1704801;82;20567;-79
2021/07/16 00:17:40;;;;;;;;;;;;;;;24.60;80.29;99862.26;1685869;83;21131;-79
2021/07/16 00:20:07;;;;;;;;;;;;;;;24.59;80.47;99868.72;1689808;83;20249;-78
2021/07/16 00:22:37;;;;;;;;;;;;;;;24.57;80.53;99884.37;1706042;83;20199;-79
2021/07/16 00:25:04;;;;;;;;;;;;;;;24.50;81.17;99908.02;1696640;82;20667;-77
2021/07/16 00:27:31;;;;;;;;;;;;;;;24.48;80.91;99923.11;1701779;83;21214;-77
2021/07/16 00:29:58;;;;;;;;;;;;;;;24.47;80.98;99935.52;1712178;82;20122;-78
2021/07/16 00:32:24;;;;;;;;;;;;;;;24.47;81.25;99934.16;1698788;82;20215;-77
2021/07/16 00:34:49;;;;;;;;;;;;;;;24.44;81.81;99930.63;1687893;83;20800;-77
2021/07/16 00:37:15;;;;;;;;;;;;;;;24.31;82.44;99919.15;1702751;83;20207;-76
2021/07/16 00:39:41;;;;;;;;;;;;;;;24.30;82.35;99926.98;1704130;83;21265;-76
2021/07/16 00:42:06;;;;;;;;;;;;;;;24.28;82.73;99938.55;1656878;83;20128;-79
2021/07/16 00:44:34;;;;;;;;;;;;;;;24.25;83.00;99939.59;1695917;82;20142;-77
2021/07/16 00:47:00;;;;;;;;;;;;;;;24.23;83.16;99938.50;1702462;83;20436;-78
2021/07/16 00:49:28;;;;;;;;;;;;;;;24.21;83.40;99939.30;1705857;82;20167;-78
2021/07/16 00:51:54;;;;;;;;;;;;;;;24.22;83.35;99938.20;1708297;82;20159;-77
2021/07/16 00:54:20;;;;;;;;;;;;;;;24.25;83.03;99943.09;1701995;82;20159;-76
2021/07/16 00:56:45;;;;;;;;;;;;;;;24.19;83.58;99943.59;1700003;82;20148;-79
2021/07/16 00:59:14;;;;;;;;;;;;;;;24.16;83.78;99945.95;1701092;83;20158;-79
2021/07/16 01:01:38;;;;;;;;;;;;;;;24.12;83.93;99952.39;1704999;83;20137;-77
2021/07/16 01:04:09;;;;;;;;;;;;;;;24.12;84.13;99956.98;1672710;83;20163;-79
2021/07/16 01:06:36;;;;;;;;;;;;;;;24.06;84.37;99955.29;1673292;82;20088;-82
2021/07/16 01:09:02;;;;;;;;;;;;;;;23.99;85.20;99956.83;1704330;82;20179;-78
2021/07/16 01:11:29;;;;;;;;;;;;;;;24.03;84.70;99957.14;1698231;83;20225;-80
2021/07/16 01:13:55;;;;;;;;;;;;;;;23.96;84.78;99960.03;1701536;83;20230;-78
2021/07/16 01:16:21;;;;;;;;;;;;;;;23.92;85.30;99959.69;1695168;83;22907;-82
2021/07/16 01:18:47;;;;;;;;;;;;;;;24.01;85.08;99968.98;1707964;83;20173;-77
2021/07/16 01:21:13;;;;;;;;;;;;;;;23.99;85.19;99963.03;1688926;83;20200;-86
2021/07/16 01:23:41;;;;;;;;;;;;;;;23.81;86.19;99952.50;1703112;82;21984;-78
2021/07/16 01:26:06;;;;;;;;;;;;;;;23.57;87.83;99947.84;1693010;83;20224;-79
2021/07/16 01:28:37;;;;;;;;;;;;;;;23.32;89.52;99944.23;1686210;83;21887;-80
2021/07/16 01:31:04;;;;;;;;;;;;;;;23.36;89.17;99941.34;1690367;83;20133;-77
2021/07/16 01:33:30;;;;;;;;;;;;;;;23.44;88.90;99947.66;1703987;82;20122;-80
2021/07/16 01:35:55;;;;;;;;;;;;;;;23.45;88.84;99954.14;1700383;83;20468;-78
2021/07/16 01:38:21;;;;;;;;;;;;;;;23.43;89.23;99967.57;1672083;83;20171;-79
2021/07/16 01:40:47;;;;;;;;;;;;;;;23.51;88.70;99972.57;1699706;83;21067;-82
2021/07/16 01:43:13;;;;;;;;;;;;;;;23.57;88.41;99981.02;1693543;83;20100;-79
2021/07/16 01:45:40;;;;;;;;;;;;;;;23.55;88.74;99987.17;1695263;83;20134;-79
2021/07/16 01:48:10;;;;;;;;;;;;;;;23.48;89.12;99985.19;1701861;82;20293;-78
2021/07/16 01:50:36;;;;;;;;;;;;;;;23.39;90.04;99993.40;1679666;83;20134;-79
2021/07/16 01:53:02;;;;;;;;;;;;;;;23.40;90.21;99990.97;1696791;83;21127;-78
2021/07/16 01:55:29;;;;;;;;;;;;;;;23.50;89.74;99987.09;1689048;83;20149;-77
2021/07/16 01:57:56;;;;;;;;;;;;;;;23.51;89.70;99977.13;1699386;82;20219;-78
2021/07/16 02:00:28;;;;;;;;;;;;;;;23.53;89.63;99967.73;1702338;82;20180;-77
2021/07/16 02:02:56;;;;;;;;;;;;;;;23.45;90.37;99965.47;1699225;83;20181;-77
2021/07/16 02:05:22;;;;;;;;;;;;;;;23.51;90.19;99959.09;1702181;83;21156;-78
2021/07/16 02:07:50;;;;;;;;;;;;;;;23.53;90.13;99951.56;1696938;82;20197;-76
2021/07/16 02:10:16;;;;;;;;;;;;;;;23.57;90.06;99966.20;1698665;83;20951;-77
2021/07/16 02:12:42;;;;;;;;;;;;;;;23.54;90.41;99969.38;1693875;83;20662;-77
2021/07/16 02:15:14;;;;;;;;;;;;;;;23.60;90.12;99952.22;1705047;83;20377;-77
2021/07/16 02:17:39;;;;;;;;;;;;;;;23.42;91.55;99936.31;1698566;83;22940;-78
2021/07/16 02:20:21;;;;;;;;;;;;;;;23.22;92.97;99932.23;1691886;83;20159;-78
2021/07/16 02:22:46;;;;;;;;;;;;;;;22.99;94.53;99929.67;1692360;82;20151;-77
2021/07/16 02:25:14;;;;;;;;;;;;;;;22.80;95.50;99919.13;1702093;83;20187;-76
2021/07/16 02:27:40;;;;;;;;;;;;;;;22.77;96.02;99908.30;1691758;82;20651;-76
2021/07/16 02:30:06;;;;;;;;;;;;;;;22.77;95.79;99902.91;1673255;83;21337;-83
2021/07/16 02:32:37;;;;;;;;;;;;;;;22.76;95.90;99882.45;1702476;82;20224;-79
2021/07/16 02:35:05;;;;;;;;;;;;;;;22.71;95.36;99885.04;1700748;82;20240;-78
2021/07/16 02:37:30;;;;;;;;;;;;;;;22.73;95.21;99872.69;1694428;83;20528;-79
2021/07/16 02:39:56;;;;;;;;;;;;;;;22.75;94.37;99880.01;1704093;82;20138;-83
2021/07/16 02:42:21;;;;;;;;;;;;;;;22.77;93.08;99880.58;1698042;82;21065;-81
2021/07/16 02:44:48;;;;;;;;;;;;;;;22.75;91.82;99883.51;1692659;83;20159;-80
2021/07/16 02:47:14;;;;;;;;;;;;;;;22.75;91.49;99884.05;1696345;82;20189;-78
2021/07/16 02:49:39;;;;;;;;;;;;;;;22.81;90.48;99869.61;1699345;82;20156;-78
2021/07/16 02:52:05;;;;;;;;;;;;;;;22.73;89.53;99890.19;1709634;81;20186;-78
2021/07/16 02:54:31;;;;;;;;;;;;;;;22.79;88.68;99887.87;1696115;83;21107;-82
2021/07/16 02:56:56;;;;;;;;;;;;;;;22.81;87.51;99907.30;1696756;82;20158;-77
2021/07/16 02:59:22;;;;;;;;;;;;;;;22.93;87.20;99899.97;1706819;83;20228;-79
2021/07/16 03:01:57;;;;;;;;;;;;;;;22.82;87.58;99902.73;1693191;83;20550;-78
2021/07/16 03:04:25;;;;;;;;;;;;;;;22.79;87.29;99909.41;1697448;83;20301;-77
2021/07/16 03:06:50;;;;;;;;;;;;;;;22.87;86.87;99916.27;1697429;83;20900;-77
2021/07/16 03:09:18;;;;;;;;;;;;;;;22.75;84.99;99901.00;1686876;82;20275;-85
2021/07/16 03:11:46;;;;;;;;;;;;;;;22.85;84.94;99894.16;1703739;82;20211;-83
2021/07/16 03:14:11;;;;;;;;;;;;;;;22.87;84.00;99886.14;1704532;82;20148;-82
2021/07/16 03:16:37;;;;;;;;;;;;;;;22.90;83.04;99891.03;1703679;82;20186;-78
2021/07/16 03:19:03;;;;;;;;;;;;;;;22.85;81.85;99892.28;1697848;83;21047;-78
2021/07/16 03:21:29;;;;;;;;;;;;;;;22.92;81.77;99896.98;1705630;82;20162;-79
2021/07/16 03:23:56;;;;;;;;;;;;;;;22.95;80.74;99893.00;1703621;83;20140;-77
2021/07/16 03:26:22;;;;;;;;;;;;;;;22.94;79.76;99893.50;1703658;82;20209;-80
2021/07/16 03:28:49;;;;;;;;;;;;;;;23.02;79.75;99888.78;1663397;83;20718;-81
2021/07/16 03:31:14;;;;;;;;;;;;;;;23.02;79.13;99894.17;1694101;82;21053;-80
2021/07/16 03:33:40;;;;;;;;;;;;;;;22.99;79.16;99886.58;1695617;83;20145;-79
2021/07/16 03:36:06;;;;;;;;;;;;;;;23.05;78.86;99889.64;1708510;82;21064;-85
2021/07/16 03:38:32;;;;;;;;;;;;;;;23.10;78.79;99888.40;1697042;82;20722;-81
2021/07/16 03:41:00;;;;;;;;;;;;;;;23.22;78.97;99884.28;1701170;82;20245;-79
2021/07/16 03:43:25;;;;;;;;;;;;;;;23.20;78.96;99883.17;1697615;83;20153;-79
2021/07/16 03:45:52;;;;;;;;;;;;;;;23.23;78.99;99866.52;1702915;83;21031;-81
2021/07/16 03:48:20;;;;;;;;;;;;;;;23.29;78.99;99864.19;1682195;83;20127;-79
2021/07/16 03:50:48;;;;;;;;;;;;;;;23.36;78.68;99873.98;1694157;83;20937;-87
2021/07/16 03:53:15;;;;;;;;;;;;;;;;;;1701600;83;20179;-78
2021/07/16 03:55:41;;;;;;;;;;;;;;;23.34;78.61;99863.95;1704206;82;21025;-81
2021/07/16 03:58:07;;;;;;;;;;;;;;;23.37;79.06;99864.30;1698979;83;20181;-80
2021/07/16 04:00:33;;;;;;;;;;;;;;;23.46;79.24;99862.81;1703370;83;20139;-78
2021/07/16 04:03:00;;;;;;;;;;;;;;;23.50;79.97;99871.20;1685003;83;20149;-78
2021/07/16 04:05:25;;;;;;;;;;;;;;;23.55;80.67;99863.17;1692575;83;20183;-77
2021/07/16 04:07:53;;;;;;;;;;;;;;;23.58;81.35;99850.55;1682027;82;21919;-77
2021/07/16 04:10:20;;;;;;;;;;;;;;;23.63;81.87;99856.54;1695466;82;20350;-77
2021/07/16 04:12:51;;;;;;;;;;;;;;;23.69;82.07;99861.48;1703918;82;20245;-79
2021/07/16 04:15:17;;;;;;;;;;;;;;;23.74;82.02;99869.62;1702882;81;20894;-77
2021/07/16 04:17:43;;;;;;;;;;;;;;;23.77;81.95;99851.59;1695125;82;20174;-77
2021/07/16 04:20:12;;;;;;;;;;;;;;;23.80;81.89;99853.78;1700174;83;21077;-79
2021/07/16 04:22:39;;;;;;;;;;;;;;;23.90;81.51;99843.16;1710692;82;20162;-80
2021/07/16 04:25:05;;;;;;;;;;;;;;;23.92;80.85;99850.46;1701380;82;20196;-77
2021/07/16 04:27:31;;;;;;;;;;;;;;;23.81;80.71;99840.05;1692984;82;20195;-79
2021/07/16 04:29:58;;;;;;;;;;;;;;;23.96;80.42;99832.72;1673704;83;20181;-83
2021/07/16 04:32:23;;;;;;;;;;;;;;;24.08;80.26;99841.19;1698990;82;21064;-78
2021/07/16 04:34:49;;;;;;;;;;;;;;;24.03;80.79;99833.05;1697637;83;20218;-80
2021/07/16 04:37:16;;;;;;;;;;;;;;;24.00;81.67;99838.41;1701944;82;20131;-77
2021/07/16 04:39:41;;;;;;;;;;;;;;;24.02;82.31;99829.55;1703662;82;20213;-77
2021/07/16 04:42:08;;;;;;;;;;;;;;;23.97;83.04;99826.27;1698585;83;20458;-82
2021/07/16 04:44:34;;;;;;;;;;;;;;;24.12;83.46;99824.25;1701206;82;21153;-79
2021/07/16 04:47:00;;;;;;;;;;;;;;;24.06;83.99;99819.06;1679779;83;20244;-81
2021/07/16 04:49:25;;;;;;;;;;;;;;;24.15;83.98;99819.69;1675715;83;20148;-78
2021/07/16 04:51:52;;;;;;;;;;;;;;;24.15;84.62;99826.44;1699488;82;21141;-77
2021/07/16 04:54:18;;;;;;;;;;;;;;;24.21;84.45;99824.62;1707054;82;21160;-85
2021/07/16 04:56:46;;;;;;;;;;;;;;;24.31;84.28;99819.30;1695677;82;21059;-79
2021/07/16 04:59:11;;;;;;;;;;;;;;;24.45;83.78;99821.59;1697229;82;20305;-78
2021/07/16 05:01:37;;;;;;;;;;;;;;;24.45;83.62;99811.60;1694323;83;20355;-79
2021/07/16 05:04:03;;;;;;;;;;;;;;;24.48;83.48;99821.89;1694620;83;20209;-77
2021/07/16 05:06:29;;;;;;;;;;;;;;;24.56;83.74;99816.55;1698500;83;20208;-77
2021/07/16 05:08:54;;;;;;;;;;;;;;;24.61;83.41;99801.80;1695360;83;21071;-78
2021/07/16 05:11:20;;;;;;;;;;;;;;;24.65;83.36;99805.59;1705735;83;20146;-89
2021/07/16 05:13:48;;;;;;;;;;;;;;;24.64;83.17;99803.98;1704635;82;20166;-80
2021/07/16 05:16:14;;;;;;;;;;;;;;;24.67;82.97;99803.47;1704172;82;20462;-79
2021/07/16 05:18:40;;;;;;;;;;;;;;;24.71;82.82;99809.16;1698578;82;20464;-77
2021/07/16 05:21:08;;;;;;;;;;;;;;;24.77;82.86;99816.77;1692531;83;21233;-80
2021/07/16 05:23:35;;;;;;;;;;;;;;;24.76;82.95;99830.79;1697893;82;20348;-78
2021/07/16 05:26:02;;;;;;;;;;;;;;;24.77;82.53;99835.67;1697695;82;20194;-81
2021/07/16 05:28:27;;;;;;;;;;;;;;;24.69;82.65;99842.37;1699658;82;20127;-79
2021/07/16 05:30:53;;;;;;;;;;;;;;;24.55;82.99;99860.84;1700356;82;20472;-84
2021/07/16 05:33:18;;;;;;;;;;;;;;;24.62;82.88;99876.31;1706587;82;21150;-78
2021/07/16 05:35:44;;;;;;;;;;;;;;;24.48;83.65;99912.31;1694132;82;20172;-79
2021/07/16 05:38:10;;;;;;;;;;;;;;;24.49;83.69;99922.59;1689681;83;20132;-84
2021/07/16 05:40:36;;;;;;;;;;;;;;;24.29;84.64;99936.14;1694259;82;20930;-78
2021/07/16 05:43:06;;;;;;;;;;;;;;;24.01;86.16;99950.10;1698430;82;20429;-81
2021/07/16 05:45:33;;;;;;;;;;;;;;;23.90;86.97;99961.83;1692206;83;21246;-78
2021/07/16 05:48:01;;;;;;;;;;;;;;;23.98;86.23;99968.13;1680046;82;20173;-84
2021/07/16 05:50:27;;;;;;;;;;;;;;;24.05;85.82;99979.27;1695721;83;20828;-79
2021/07/16 05:52:55;;;;;;;;;;;;;;;24.11;85.47;99969.64;1694698;82;20195;-79
2021/07/16 05:55:20;;;;;;;;;;;;;;;24.00;86.19;99983.55;1693779;82;20182;-78
2021/07/16 05:57:46;;;;;;;;;;;;;;;23.81;86.77;99991.61;1686692;82;21949;-77
2021/07/16 06:00:13;;;;;;;;;;;;;;;23.64;88.01;99987.04;1695866;83;20477;-78
2021/07/16 06:02:38;;;;;;;;;;;;;;;23.62;88.18;99987.83;1693506;83;20102;-78
2021/07/16 06:05:05;;;;;;;;;;;;;;;23.55;88.28;99996.60;1698175;82;20137;-78
2021/07/16 06:07:30;;;;;;;;;;;;;;;23.38;89.62;100003.88;1679321;82;20200;-78
2021/07/16 06:09:58;;;;;;;;;;;;;;;23.35;89.02;100007.06;1701482;83;21130;-84
2021/07/16 06:12:23;;;;;;;;;;;;;;;23.22;89.54;100004.16;1704007;83;20235;-79
2021/07/16 06:14:54;;;;;;;;;;;;;;;23.09;90.15;100003.41;1706256;83;20187;-86
2021/07/16 06:17:17;;;;;;;;;;;;;;;22.88;91.62;100010.27;1695575;82;20439;-78
2021/07/16 06:19:43;;;;;;;;;;;;;;;22.83;91.80;100007.48;1706671;82;20162;-79
2021/07/16 06:22:08;;;;;;;;;;;;;;;22.79;92.93;100009.02;1704514;83;21087;-78
2021/07/16 06:24:34;;;;;;;;;;;;;;;22.74;93.47;100008.93;1708678;82;20925;-79
2021/07/16 06:27:00;;;;;;;;;;;;;;;22.70;94.46;99998.34;1702381;82;20173;-77
2021/07/16 06:29:26;;;;;;;;;;;;;;;22.58;95.03;100003.78;1686167;82;20157;-77
2021/07/16 06:31:51;;;;;;;;;;;;;;;22.58;96.13;100008.62;1699478;82;20298;-80
2021/07/16 06:34:17;;;;;;;;;;;;;;;22.56;96.19;100012.09;1688565;82;21881;-78
2021/07/16 06:36:42;;;;;;;;;;;;;;;22.43;97.06;100018.28;1692981;82;20326;-82
2021/07/16 06:39:10;;;;;;;;;;;;;;;22.39;98.03;100031.40;1699854;83;20160;-77
2021/07/16 06:41:35;;;;;;;;;;;;;;;22.38;99.60;100041.86;1694611;81;20567;-77
2021/07/16 06:44:01;;;;;;;;;;;;;;;22.41;100.00;100040.04;1700381;83;20755;-77
2021/07/16 06:46:26;;;;;;;;;;;;;;;22.30;100.00;100044.39;1688809;83;21202;-83
2021/07/16 06:48:52;;;;;;;;;;;;;;;22.27;100.00;100034.60;1692991;82;20145;-78
2021/07/16 06:51:20;;;;;;;;;;;;;;;22.24;100.00;100024.59;1702145;82;20141;-76
2021/07/16 06:53:46;;;;;;;;;;;;;;;22.30;100.00;100027.41;1701043;83;20131;-82
2021/07/16 06:56:12;;;;;;;;;;;;;;;22.10;100.00;100025.90;1701904;82;20172;-76
2021/07/16 06:58:37;;;;;;;;;;;;;;;22.08;100.00;100026.67;1702740;82;21147;-81
2021/07/16 07:01:03;;;;;;;;;;;;;;;22.14;100.00;100021.70;1699760;82;20176;-80
2021/07/16 07:03:28;;;;;;;;;;;;;;;22.18;100.00;100021.50;1703871;83;20277;-84
2021/07/16 07:05:55;;;;;;;;;;;;;;;22.24;100.00;100006.30;1712151;82;20095;-80
2021/07/16 07:08:20;;;;;;;;;;;;;;;22.28;100.00;99983.77;1700514;82;20190;-86
2021/07/16 07:10:46;;;;;;;;;;;;;;;22.23;100.00;99978.59;1705926;82;21136;-89
2021/07/16 07:13:12;;;;;;;;;;;;;;;22.15;100.00;99981.62;1677712;83;20124;-84
2021/07/16 07:15:37;;;;;;;;;;;;;;;22.30;100.00;99978.98;1697502;82;20355;-90
2021/07/16 07:18:04;;;;;;;;;;;;;;;22.22;100.00;99979.63;1687867;83;20749;-78
2021/07/16 07:20:32;;;;;;;;;;;;;;;22.32;100.00;99996.53;1699558;83;20227;-81
2021/07/16 07:22:58;;;;;;;;;;;;;;;22.46;100.00;100013.77;1694100;82;21340;-90
2021/07/16 07:25:24;;;;;;;;;;;;;;;22.36;100.00;100023.80;1700852;82;20218;-85
2021/07/16 07:27:50;;;;;;;;;;;;;;;22.45;100.00;100018.34;1703225;82;20238;-86
2021/07/16 07:30:16;;;;;;;;;;;;;;;22.42;100.00;100012.09;1691759;83;20478;-80
2021/07/16 07:32:42;;;;;;;;;;;;;;;22.46;100.00;100019.95;1699717;82;20198;-79
2021/07/16 07:35:08;;;;;;;;;;;;;;;22.54;100.00;100026.33;1692217;83;21080;-79
2021/07/16 07:37:34;;;;;;;;;;;;;;;22.57;100.00;100031.20;1704435;82;20553;-84
2021/07/16 07:40:00;;;;;;;;;;;;;;;22.66;100.00;100018.73;1701480;83;20223;-79
2021/07/16 07:42:26;;;;;;;;;;;;;;;22.66;99.90;100001.25;1704919;82;20164;-86
2021/07/16 07:44:53;;;;;;;;;;;;;;;22.70;100.00;99997.84;1693185;81;20728;-79
2021/07/16 07:47:19;;;;;;;;;;;;;;;22.65;100.00;99989.64;1701202;82;21142;-80
2021/07/16 07:49:45;;;;;;;;;;;;;;;22.58;100.00;99989.80;1696587;82;20132;-80
2021/07/16 07:52:11;;;;;;;;;;;;;;;22.45;100.00;99998.16;1695336;82;20257;-77
2021/07/16 07:54:37;;;;;;;;;;;;;;;22.45;100.00;99998.66;1682068;83;20146;-78
2021/07/16 07:57:03;;;;;;;;;;;;;;;22.34;100.00;99993.61;1692655;83;20172;-77
2021/07/16 07:59:29;;;;;;;;;;;;;;;22.41;100.00;99996.98;1700062;81;21102;-78
2021/07/16 08:01:54;;;;;;;;;;;;;;;22.45;100.00;99994.63;1704561;83;20436;-77
2021/07/16 08:04:20;;;;;;;;;;;;;;;22.49;100.00;100004.68;1693728;83;20134;-77
2021/07/16 08:06:46;;;;;;;;;;;;;;;22.55;100.00;99997.53;1701996;83;20361;-76
2021/07/16 08:09:13;;;;;;;;;;;;;;;22.54;100.00;99991.34;1705088;83;20115;-86
2021/07/16 08:11:38;;;;;;;;;;;;;;;22.54;100.00;99983.27;1688233;83;22161;-77
2021/07/16 08:14:04;;;;;;;;;;;;;;;22.42;99.60;99967.69;1691490;83;20154;-76
2021/07/16 08:16:29;;;;;;;;;;;;;;;22.11;99.75;99956.28;1701073;83;20150;-86
2021/07/16 08:18:55;;;;;;;;;;;;;;;21.93;100.00;99932.23;1676835;83;20364;-78
2021/07/16 08:21:24;;;;;;;;;;;;;;;21.78;100.00;99902.63;1699861;82;20458;-77
2021/07/16 08:23:50;;;;;;;;;;;;;;;21.50;100.00;99889.91;1702709;82;21827;-76
2021/07/16 08:26:18;;;;;;;;;;;;;;;21.56;100.00;99921.74;1687838;82;20193;-76
2021/07/16 08:28:43;;;;;;;;;;;;;;;21.71;100.00;99946.27;1680016;84;20130;-78
2021/07/16 08:31:09;;;;;;;;;;;;;;;21.78;100.00;99948.33;1702690;83;20523;-78
2021/07/16 08:33:34;;;;;;;;;;;;;;;21.83;100.00;99957.84;1639029;82;20180;-77
2021/07/16 08:36:00;;;;;;;;;;;;;;;21.94;100.00;99968.80;1696359;82;21669;-84
2021/07/16 08:38:26;;;;;;;;;;;;;;;21.96;100.00;99972.09;1699370;83;21055;-76
2021/07/16 08:40:53;;;;;;;;;;;;;;;22.00;100.00;99966.50;1695560;82;20148;-77
2021/07/16 08:43:20;;;;;;;;;;;;;;;22.02;100.00;99954.47;1699189;83;20100;-77
2021/07/16 08:45:46;;;;;;;;;;;;;;;22.09;100.00;99957.02;1699783;82;20226;-88
2021/07/16 08:48:12;;;;;;;;;;;;;;;22.08;100.00;99968.85;1688823;83;21140;-82
2021/07/16 08:50:38;;;;;;;;;;;;;;;22.06;100.00;99954.80;1694127;82;20108;-78
2021/07/16 08:53:03;;;;;;;;;;;;;;;21.99;100.00;99954.94;1691926;83;20238;-82
2021/07/16 08:55:35;;;;;;;;;;;;;;;21.88;100.00;99951.22;1700824;82;20233;-81
2021/07/16 08:58:02;;;;;;;;;;;;;;;21.98;100.00;99953.30;1690121;82;20492;-80
2021/07/16 09:00:29;;;;;;;;;;;;;;;22.08;100.00;99971.54;1695660;83;21886;-78
2021/07/16 09:02:57;;;;;;;;;;;;;;;22.10;100.00;99976.69;1691445;82;20147;-81
2021/07/16 09:05:37;;;;;;;;;;;;;;;22.10;100.00;99993.63;1693171;83;20175;-79
2021/07/16 09:08:08;;;;;;;;;;;;;;;22.16;100.00;99995.91;1709305;82;20144;-77
2021/07/16 09:10:32;;;;;;;;;;;;;;;22.23;100.00;100010.87;1686397;83;20185;-81
2021/07/16 09:12:58;;;;;;;;;;;;;;;22.37;100.00;100013.31;1700153;83;21240;-78
2021/07/16 09:15:24;;;;;;;;;;;;;;;22.51;100.00;100018.73;1697046;81;20198;-77
2021/07/16 09:17:53;;;;;;;;;;;;;;;22.64;100.00;100023.52;1695962;83;20168;-82
2021/07/16 09:20:23;;;;;;;;;;;;;;;22.79;100.00;100019.78;1666033;83;20461;-83
2021/07/16 09:23:10;;;;;;;;;;;;;;;22.99;100.00;100037.39;1676099;83;20184;-81
2021/07/16 09:25:37;;;;;;;;;;;;;;;23.09;100.00;100034.93;1702910;82;21191;-80
2021/07/16 09:28:04;;;;;;;;;;;;;;;23.29;100.00;100043.36;1699435;82;20086;-83
2021/07/16 09:30:30;;;;;;;;;;;;;;;23.39;100.00;100045.95;1696706;83;20109;-82
2021/07/16 09:32:58;;;;;;;;;;;;;;;23.54;100.00;100045.37;1699387;83;20334;-80
2021/07/16 09:35:26;;;;;;;;;;;;;;;23.60;100.00;100045.73;1683581;82;20192;-82
2021/07/16 09:37:59;;;;;;;;;;;;;;;23.66;98.17;100044.75;1690050;83;21810;-90
2021/07/16 09:40:32;;;;;;;;;;;;;;;23.76;96.98;100042.77;1696528;83;20214;-85
2021/07/16 09:43:06;;;;;;;;;;;;;;;23.80;96.26;100050.63;1692721;82;20199;-82
2021/07/16 09:45:34;;;;;;;;;;;;;;;23.93;97.26;100048.98;1693209;83;20203;-80
2021/07/16 09:48:29;;;;;;;;;;;;;;;24.03;97.38;100034.02;1668711;83;20585;-88
2021/07/16 09:51:17;;;;;;;;;;;;;;;24.09;94.88;100039.77;1694789;83;22022;-82
2021/07/16 09:54:00;;;;;;;;;;;;;;;24.23;95.43;100050.48;1696763;83;20187;-81
2021/07/16 09:56:27;;;;;;;;;;;;;;;24.35;93.54;100036.34;1693173;83;20175;-78
2021/07/16 09:59:06;;;;;;;;;;;;;;;24.31;92.10;100040.59;1691253;82;20174;-79
2021/07/16 10:01:34;;;;;;;;;;;;;;;24.40;93.72;100040.98;1687962;82;20144;-81
2021/07/16 10:04:06;;;;;;;;;;;;;;;24.46;92.96;100039.18;1693216;82;22400;-92
2021/07/16 10:06:31;;;;;;;;;;;;;;;24.50;92.56;100045.69;1684273;82;20123;-80
2021/07/16 10:08:57;;;;;;;;;;;;;;;24.57;92.29;100046.36;1689829;82;20183;-81
2021/07/16 10:11:26;;;;;;;;;;;;;;;24.56;91.36;100039.28;1697212;82;20130;-84
2021/07/16 10:13:53;;;;;;;;;;;;;;;24.70;91.84;100030.30;1691578;82;20989;-82
2021/07/16 10:16:19;;;;;;;;;;;;;;;24.70;88.16;100035.19;1690733;82;21755;-81
2021/07/16 10:18:46;;;;;;;;;;;;;;;24.77;89.36;100026.07;1694074;82;20286;-77
2021/07/16 10:21:13;;;;;;;;;;;;;;;24.94;89.08;100032.19;1699766;82;32467;-86
2021/07/16 10:23:38;;;;;;;;;;;;;;;25.15;89.45;100029.68;1701968;82;20457;-83
2021/07/16 10:26:04;;;;;;;;;;;;;;;25.24;88.40;100030.84;1696257;83;20196;-88
2021/07/16 10:28:41;;;;;;;;;;;;;;;25.34;87.53;100030.14;1692477;82;21885;-85
2021/07/16 10:31:31;;;;;;;;;;;;;;;25.39;85.50;100032.36;1696434;82;20163;-78
2021/07/16 10:34:12;;;;;;;;;;;;;;;25.43;84.59;100040.25;1681303;82;20272;-82
2021/07/16 10:36:42;;;;;;;;;;;;;;;25.50;84.49;100044.63;1666029;83;20152;-83
2021/07/16 10:39:09;;;;;;;;;;;;;;;25.69;85.89;100049.90;1689696;83;20641;-79
2021/07/16 10:41:37;;;;;;;;;;;;;;;25.71;83.73;100049.09;1687943;83;21186;-78
2021/07/16 10:44:05;;;;;;;;;;;;;;;25.69;82.87;100047.19;1685589;84;20179;-78
2021/07/16 10:46:34;;;;;;;;;;;;;;;25.71;82.33;100047.74;1696088;82;20171;-82
2021/07/16 10:49:09;;;;;;;;;;;;;;;25.84;80.61;100050.55;1696962;82;20193;-80
2021/07/16 10:51:35;;;;;;;;;;;;;;;25.92;80.62;100051.96;1689524;82;20226;-77
2021/07/16 10:54:02;;;;;;;;;;;;;;;26.09;81.17;100058.05;1689669;83;21083;-82
2021/07/16 10:56:44;;;;;;;;;;;;;;;26.29;81.51;100051.13;1693458;83;20437;-79
2021/07/16 10:59:10;;;;;;;;;;;;;;;26.39;80.14;100052.52;1695696;82;20123;-79
2021/07/16 11:01:37;;;;;;;;;;;;;;;26.40;80.25;100050.09;1694845;83;20175;-82
2021/07/16 11:04:05;;;;;;;;;;;;;;;26.44;77.90;100049.02;1692297;83;20268;-79
2021/07/16 11:06:51;;;;;;;;;;;;;;;26.50;78.74;100054.17;1698831;82;21045;-78
2021/07/16 11:09:38;;;;;;;;;;;;;;;26.62;76.56;100045.03;1643737;84;20151;-82
2021/07/16 11:12:23;;;;;;;;;;;;;;;26.72;77.08;100046.43;1694422;82;20811;-89
2021/07/16 11:14:49;;;;;;;;;;;;;;;26.83;76.45;100038.62;1689464;82;20611;-83
2021/07/16 11:17:32;;;;;;;;;;;;;;;26.91;76.92;100037.81;1692272;82;20325;-77
2021/07/16 11:20:18;;;;;;;;;;;;;;;27.04;77.21;100035.95;1665632;84;21154;-84
2021/07/16 11:22:56;;;;;;;;;;;;;;;27.06;74.31;100045.97;1692500;82;21091;-78
2021/07/16 11:25:22;;;;;;;;;;;;;;;27.03;74.16;100032.95;1690735;82;20535;-78
2021/07/16 11:27:48;;;;;;;;;;;;;;;27.18;74.89;100030.27;1700072;82;20125;-82
2021/07/16 11:30:13;;;;;;;;;;;;;;;27.25;71.52;100030.55;1695814;83;21474;-78
2021/07/16 11:32:40;;;;;;;;;;;;;;;27.37;72.58;100028.41;1695651;83;21156;-87
2021/07/16 11:35:07;;;;;;;;;;;;;;;27.42;71.60;100037.09;1694068;82;21010;-80
2021/07/16 11:37:36;;;;;;;;;;;;;;;27.49;70.49;100041.72;1690923;83;20517;-78
2021/07/16 11:40:11;;;;;;;;;;;;;;;27.53;70.01;100041.42;1704702;83;20630;-84
2021/07/16 11:42:40;;;;;;;;;;;;;;;27.57;69.44;100046.03;1694498;83;20185;-82
2021/07/16 11:45:06;;;;;;;;;;;;;;;27.58;69.24;100042.24;1695687;83;21129;-82
2021/07/16 11:47:32;;;;;;;;;;;;;;;27.64;69.21;100054.44;1694403;83;20485;-78
2021/07/16 11:50:03;;;;;;;;;;;;;;;27.58;68.63;100050.94;1689387;82;20221;-86
2021/07/16 11:52:31;;;;;;;;;;;;;;;27.69;69.91;100054.45;1692523;83;20137;-85
2021/07/16 11:55:11;;;;;;;;;;;;;;;27.76;69.00;100049.55;1688723;82;20159;-80
2021/07/16 11:57:55;;;;;;;;;;;;;;;27.92;68.56;100051.69;1698647;83;21378;-77
2021/07/16 12:00:27;;;;;;;;;;;;;;;27.99;68.29;100049.54;1701454;82;20448;-79
2021/07/16 12:03:07;;;;;;;;;;;;;;;28.03;68.15;100047.91;1689885;82;20235;-77
2021/07/16 12:05:33;;;;;;;;;;;;;;;28.29;68.11;100047.30;1688309;83;20937;-78
2021/07/16 12:07:59;;;;;;;;;;;;;;;28.44;68.65;100046.41;1694862;83;20219;-83
2021/07/16 12:10:25;;;;;;;;;;;;;;;28.55;67.25;100053.97;1696093;83;21019;-77
2021/07/16 12:12:50;;;;;;;;;;;;;;;28.48;65.75;100054.28;1695551;82;20183;-77
2021/07/16 12:15:18;;;;;;;;;;;;;;;28.62;66.11;100056.41;1686427;83;20189;-82
2021/07/16 12:17:59;;;;;;;;;;;;;;;28.77;66.26;100050.09;1687811;82;20202;-82
2021/07/16 12:20:27;;;;;;;;;;;;;;;28.74;64.13;100056.09;1688967;82;20145;-78
2021/07/16 12:22:53;;;;;;;;;;;;;;;28.75;64.74;100049.02;1689834;82;21102;-77
2021/07/16 12:25:18;;;;;;;;;;;;;;;28.86;64.17;100053.84;1686004;83;20169;-80
2021/07/16 12:27:44;;;;;;;;;;;;;;;29.04;65.59;100048.84;1684557;83;20154;-79
2021/07/16 12:30:11;;;;;;;;;;;;;;;29.17;64.23;100055.02;1689787;83;20107;-78
2021/07/16 12:32:47;;;;;;;;;;;;;;;29.16;63.12;100050.13;1689792;83;20199;-78
2021/07/16 12:35:20;;;;;;;;;;;;;;;29.25;62.08;100053.07;1690429;82;21083;-78
2021/07/16 12:37:47;;;;;;;;;;;;;;;29.28;61.47;100049.78;1700627;83;20588;-78
2021/07/16 12:40:15;;;;;;;;;;;;;;;29.24;61.22;100045.20;1697166;82;20171;-78
2021/07/16 12:42:41;;;;;;;;;;;;;;;29.19;60.71;100056.89;1693697;83;20167;-80